sensor_id;sensor_type;location;lat;lon;timestamp;pressure;altitude;pressure_sealevel;temperature;humidity
71974;BME280;59840;52.122;5.404;2023-02-12T00:01:56;103972.31;;;7.09;94.40
71974;BME280;59840;52.122;5.404;2023-02-12T00:04:23;103974.94;;;7.09;94.16
71974;BME280;59840;52.122;5.404;2023-02-12T00:06:50;103974.13;;;7.08;94.59
71974;BME280;59840;52.122;5.404;2023-02-12T00:09:16;103972.47;;;7.07;94.63
71974;BME280;59840;52.122;5.404;2023-02-12T00:11:43;103970.66;;;7.07;94.50
71974;BME280;59840;52.122;5.404;2023-02-12T00:14:09;103970.66;;;7.07;94.64
71974;BME280;59840;52.122;5.404;2023-02-12T00:16:36;103972.31;;;7.09;94.58
71974;BME280;59840;52.122;5.404;2023-02-12T00:19:02;103967.91;;;7.09;94.59
71974;BME280;59840;52.122;5.404;2023-02-12T00:21:29;103963.47;;;7.10;94.44
71974;BME280;59840;52.122;5.404;2023-02-12T00:23:56;103977.56;;;7.09;94.24
71974;BME280;59840;52.122;5.404;2023-02-12T00:26:22;103972.31;;;7.09;94.56
71974;BME280;59840;52.122;5.404;2023-02-12T00:28:49;103972.47;;;7.07;94.08
71974;BME280;59840;52.122;5.404;2023-02-12T00:31:19;103974.25;;;7.06;94.71
71974;BME280;59840;52.122;5.404;2023-02-12T00:33:46;103969.84;;;7.07;94.41
71974;BME280;59840;52.122;5.404;2023-02-12T00:36:16;103975.09;;;7.07;94.46
71974;BME280;59840;52.122;5.404;2023-02-12T00:38:43;103968.19;;;7.06;94.53
71974;BME280;59840;52.122;5.404;2023-02-12T00:41:10;103971.78;;;7.05;94.82
71974;BME280;59840;52.122;5.404;2023-02-12T00:43:37;103968.31;;;7.04;94.53
71974;BME280;59840;52.122;5.404;2023-02-12T00:46:04;103968.47;;;7.03;94.59
71974;BME280;59840;52.122;5.404;2023-02-12T00:48:32;103968.47;;;7.03;94.50
71974;BME280;59840;52.122;5.404;2023-02-12T00:50:59;103972.22;;;7.00;94.68
71974;BME280;59840;52.122;5.404;2023-02-12T00:53:26;103975.66;;;7.01;94.33
71974;BME280;59840;52.122;5.404;2023-02-12T00:55:53;103968.75;;;7.00;94.71
71974;BME280;59840;52.122;5.404;2023-02-12T00:58:20;103967.25;;;6.97;94.87
71974;BME280;59840;52.122;5.404;2023-02-12T01:00:47;103975.13;;;6.97;94.76
71974;BME280;59840;52.122;5.404;2023-02-12T01:03:14;103966.69;;;6.94;94.78
71974;BME280;59840;52.122;5.404;2023-02-12T01:05:42;103964.06;;;6.94;94.83
71974;BME280;59840;52.122;5.404;2023-02-12T01:08:11;103973.91;;;6.92;94.88
71974;BME280;59840;52.122;5.404;2023-02-12T01:10:39;103974.06;;;6.90;94.88
71974;BME280;59840;52.122;5.404;2023-02-12T01:13:06;103974.06;;;6.90;94.76
71974;BME280;59840;52.122;5.404;2023-02-12T01:15:32;103973.22;;;6.90;95.39
71974;BME280;59840;52.122;5.404;2023-02-12T01:17:59;103976.81;;;6.89;95.00
71974;BME280;59840;52.122;5.404;2023-02-12T01:20:25;103980.28;;;6.89;95.00
71974;BME280;59840;52.122;5.404;2023-02-12T01:22:52;103972.69;;;6.86;95.08
71974;BME280;59840;52.122;5.404;2023-02-12T01:25:19;103968.41;;;6.85;94.99
71974;BME280;59840;52.122;5.404;2023-02-12T01:27:46;103975.47;;;6.85;95.08
71974;BME280;59840;52.122;5.404;2023-02-12T01:30:14;103967.72;;;6.83;95.42
71974;BME280;59840;52.122;5.404;2023-02-12T01:32:41;103972.13;;;6.83;95.14
71974;BME280;59840;52.122;5.404;2023-02-12T01:35:09;103975.72;;;6.82;94.99
71974;BME280;59840;52.122;5.404;2023-02-12T01:37:36;103968.00;;;6.80;95.28
71974;BME280;59840;52.122;5.404;2023-02-12T01:40:04;103967.03;;;6.81;95.01
71974;BME280;59840;52.122;5.404;2023-02-12T01:42:30;103966.22;;;6.81;95.68
71974;BME280;59840;52.122;5.404;2023-02-12T01:47:41;103972.44;;;6.80;95.30
71974;BME280;59840;52.122;5.404;2023-02-12T01:50:10;103970.91;;;6.77;95.43
71974;BME280;59840;52.122;5.404;2023-02-12T01:52:41;103978.78;;;6.77;95.76
71974;BME280;59840;52.122;5.404;2023-02-12T01:55:09;103970.22;;;6.75;95.60
71974;BME280;59840;52.122;5.404;2023-02-12T01:57:40;103973.00;;;6.73;95.69
71974;BME280;59840;52.122;5.404;2023-02-12T02:00:12;103975.75;;;6.72;95.51
71974;BME280;59840;52.122;5.404;2023-02-12T02:02:39;103969.97;;;6.68;95.41
71974;BME280;59840;52.122;5.404;2023-02-12T02:05:08;103968.16;;;6.69;95.61
71974;BME280;59840;52.122;5.404;2023-02-12T02:07:35;103974.38;;;6.68;95.84
71974;BME280;59840;52.122;5.404;2023-02-12T02:10:03;103969.53;;;6.63;95.94
71974;BME280;59840;52.122;5.404;2023-02-12T02:12:30;103965.28;;;6.62;96.19
71974;BME280;59840;52.122;5.404;2023-02-12T02:15:15;103967.50;;;6.57;95.84
71974;BME280;59840;52.122;5.404;2023-02-12T02:18:08;103972.22;;;6.54;95.57
71974;BME280;59840;52.122;5.404;2023-02-12T02:38:49;103962.81;;;6.51;96.07
71974;BME280;59840;52.122;5.404;2023-02-12T02:41:47;103960.19;;;6.51;96.01
71974;BME280;59840;52.122;5.404;2023-02-12T02:44:23;103951.50;;;6.51;96.13
71974;BME280;59840;52.122;5.404;2023-02-12T02:46:52;103962.13;;;6.49;95.93
71974;BME280;59840;52.122;5.404;2023-02-12T02:49:26;103959.50;;;6.49;96.12
71974;BME280;59840;52.122;5.404;2023-02-12T02:52:00;103955.22;;;6.48;96.14
71974;BME280;59840;52.122;5.404;2023-02-12T02:54:35;103952.88;;;6.45;96.32
71974;BME280;59840;52.122;5.404;2023-02-12T02:57:11;103951.22;;;6.44;96.27
71974;BME280;59840;52.122;5.404;2023-02-12T02:59:44;103951.22;;;6.44;96.07
71974;BME280;59840;52.122;5.404;2023-02-12T03:02:17;103951.50;;;6.41;96.20
71974;BME280;59840;52.122;5.404;2023-02-12T03:04:49;103949.03;;;6.39;96.72
71974;BME280;59840;52.122;5.404;2023-02-12T03:07:24;103956.06;;;6.39;96.47
71974;BME280;59840;52.122;5.404;2023-02-12T03:09:57;103953.44;;;6.39;96.30
71974;BME280;59840;52.122;5.404;2023-02-12T03:12:42;103948.19;;;6.39;96.59
71974;BME280;59840;52.122;5.404;2023-02-12T03:15:46;103939.38;;;6.40;96.49
71974;BME280;59840;52.122;5.404;2023-02-12T03:18:20;103945.72;;;6.37;96.45
71974;BME280;59840;52.122;5.404;2023-02-12T03:20:54;103946.81;;;6.35;96.32
71974;BME280;59840;52.122;5.404;2023-02-12T03:23:32;103946.97;;;6.33;96.71
71974;BME280;59840;52.122;5.404;2023-02-12T03:26:07;103952.75;;;6.37;96.56
71974;BME280;59840;52.122;5.404;2023-02-12T03:28:36;103952.75;;;6.37;96.60
71974;BME280;59840;52.122;5.404;2023-02-12T03:31:15;103943.22;;;6.36;96.43
71974;BME280;59840;52.122;5.404;2023-02-12T03:39:46;103945.16;;;6.34;96.33
71974;BME280;59840;52.122;5.404;2023-02-12T03:43:21;103951.22;;;6.25;96.79
71974;BME280;59840;52.122;5.404;2023-02-12T03:45:42;103953.59;;;6.18;97.48
71974;BME280;59840;52.122;5.404;2023-02-12T03:48:32;103958.13;;;6.26;97.81
71974;BME280;59840;52.122;5.404;2023-02-12T03:51:10;103955.09;;;6.30;97.50
71974;BME280;59840;52.122;5.404;2023-02-12T03:53:41;103958.28;;;6.34;97.62
71974;BME280;59840;52.122;5.404;2023-02-12T03:56:12;103953.84;;;6.34;97.58
71974;BME280;59840;52.122;5.404;2023-02-12T03:58:41;103960.91;;;6.34;97.10
71974;BME280;59840;52.122;5.404;2023-02-12T04:01:12;103960.06;;;6.33;97.35
71974;BME280;59840;52.122;5.404;2023-02-12T04:03:39;103962.81;;;6.32;97.09
71974;BME280;59840;52.122;5.404;2023-02-12T04:06:25;103968.75;;;6.34;97.00
71974;BME280;59840;52.122;5.404;2023-02-12T04:08:54;103970.00;;;6.30;97.42
71974;BME280;59840;52.122;5.404;2023-02-12T04:11:45;103975.13;;;6.31;97.10
71974;BME280;59840;52.122;5.404;2023-02-12T04:17:05;103975.53;;;6.36;97.29
71974;BME280;59840;52.122;5.404;2023-02-12T04:22:57;103978.00;;;6.38;96.92
71974;BME280;59840;52.122;5.404;2023-02-12T04:28:11;103985.47;;;6.33;97.13
71974;BME280;59840;52.122;5.404;2023-02-12T04:31:02;103983.66;;;6.33;97.14
71974;BME280;59840;52.122;5.404;2023-02-12T04:33:41;103986.44;;;6.32;96.92
71974;BME280;59840;52.122;5.404;2023-02-12T04:36:15;103989.06;;;6.32;97.29
71974;BME280;59840;52.122;5.404;2023-02-12T04:38:49;103989.88;;;6.32;97.33
71974;BME280;59840;52.122;5.404;2023-02-12T04:41:17;103982.16;;;6.31;96.90
71974;BME280;59840;52.122;5.404;2023-02-12T04:43:43;103995.13;;;6.32;97.39
71974;BME280;59840;52.122;5.404;2023-02-12T04:46:10;103995.13;;;6.32;97.16
71974;BME280;59840;52.122;5.404;2023-02-12T04:48:49;103993.47;;;6.31;97.07
71974;BME280;59840;52.122;5.404;2023-02-12T04:51:16;103994.28;;;6.32;97.26
71974;BME280;59840;52.122;5.404;2023-02-12T04:53:43;103996.91;;;6.32;97.04
71974;BME280;59840;52.122;5.404;2023-02-12T04:56:10;103994.28;;;6.32;97.07
71974;BME280;59840;52.122;5.404;2023-02-12T04:58:39;104000.38;;;6.32;97.09
71974;BME280;59840;52.122;5.404;2023-02-12T05:01:06;103983.81;;;6.32;97.29
71974;BME280;59840;52.122;5.404;2023-02-12T05:03:34;103995.13;;;6.32;96.87
71974;BME280;59840;52.122;5.404;2023-02-12T05:06:06;103986.16;;;6.35;97.09
71974;BME280;59840;52.122;5.404;2023-02-12T05:08:33;103995.53;;;6.37;96.92
71974;BME280;59840;52.122;5.404;2023-02-12T05:11:07;103995.41;;;6.39;96.78
71974;BME280;59840;52.122;5.404;2023-02-12T05:13:34;103997.75;;;6.42;96.62
71974;BME280;59840;52.122;5.404;2023-02-12T05:16:05;103994.16;;;6.43;96.12
71974;BME280;59840;52.122;5.404;2023-02-12T05:18:32;104001.91;;;6.45;95.94
71974;BME280;59840;52.122;5.404;2023-02-12T05:21:00;103998.44;;;6.44;95.89
71974;BME280;59840;52.122;5.404;2023-02-12T05:23:29;103995.81;;;6.44;95.76
71974;BME280;59840;52.122;5.404;2023-02-12T05:26:01;104001.06;;;6.44;95.73
71974;BME280;59840;52.122;5.404;2023-02-12T05:28:29;104008.66;;;6.47;95.48
71974;BME280;59840;52.122;5.404;2023-02-12T05:31:00;104004.25;;;6.48;95.58
71974;BME280;59840;52.122;5.404;2023-02-12T05:33:27;104003.56;;;6.46;95.45
71974;BME280;59840;52.122;5.404;2023-02-12T05:35:54;104002.03;;;6.43;95.63
71974;BME280;59840;52.122;5.404;2023-02-12T05:38:21;104007.28;;;6.43;95.76
71974;BME280;59840;52.122;5.404;2023-02-12T05:40:48;104007.28;;;6.43;95.85
71974;BME280;59840;52.122;5.404;2023-02-12T05:43:14;104007.41;;;6.42;95.86
71974;BME280;59840;52.122;5.404;2023-02-12T05:45:41;104003.81;;;6.43;95.84
71974;BME280;59840;52.122;5.404;2023-02-12T05:48:10;104006.59;;;6.41;95.77
71974;BME280;59840;52.122;5.404;2023-02-12T05:50:36;104005.63;;;6.42;95.78
71974;BME280;59840;52.122;5.404;2023-02-12T05:53:03;104010.03;;;6.42;95.89
71974;BME280;59840;52.122;5.404;2023-02-12T05:55:29;104006.59;;;6.41;95.72
71974;BME280;59840;52.122;5.404;2023-02-12T05:57:56;104005.75;;;6.41;95.89
71974;BME280;59840;52.122;5.404;2023-02-12T06:00:23;104011.16;;;6.39;95.82
71974;BME280;59840;52.122;5.404;2023-02-12T06:02:50;104009.50;;;6.38;96.02
71974;BME280;59840;52.122;5.404;2023-02-12T06:05:16;103999.00;;;6.38;96.20
71974;BME280;59840;52.122;5.404;2023-02-12T06:07:43;103999.00;;;6.38;95.75
71974;BME280;59840;52.122;5.404;2023-02-12T06:10:10;104006.16;;;6.36;96.07
71974;BME280;59840;52.122;5.404;2023-02-12T06:12:36;104010.03;;;6.32;96.30
71974;BME280;59840;52.122;5.404;2023-02-12T06:15:03;104008.38;;;6.31;96.21
71974;BME280;59840;52.122;5.404;2023-02-12T06:17:29;104005.75;;;6.31;96.34
71974;BME280;59840;52.122;5.404;2023-02-12T06:19:56;104005.63;;;6.32;96.71
71974;BME280;59840;52.122;5.404;2023-02-12T06:22:22;104010.72;;;6.34;96.55
71974;BME280;59840;52.122;5.404;2023-02-12T06:24:49;104013.34;;;6.34;96.52
71974;BME280;59840;52.122;5.404;2023-02-12T06:27:15;104010.72;;;6.34;96.47
71974;BME280;59840;52.122;5.404;2023-02-12T06:29:42;104007.56;;;6.30;96.29
71974;BME280;59840;52.122;5.404;2023-02-12T06:32:08;104011.97;;;6.30;96.29
71974;BME280;59840;52.122;5.404;2023-02-12T06:34:39;104015.56;;;6.29;96.53
71974;BME280;59840;52.122;5.404;2023-02-12T06:37:06;104006.72;;;6.30;96.17
71974;BME280;59840;52.122;5.404;2023-02-12T06:39:32;104011.00;;;6.31;96.26
71974;BME280;59840;52.122;5.404;2023-02-12T06:41:59;104007.56;;;6.30;96.26
71974;BME280;59840;52.122;5.404;2023-02-12T06:44:25;104008.38;;;6.31;96.29
71974;BME280;59840;52.122;5.404;2023-02-12T06:46:52;104012.66;;;6.32;96.09
71974;BME280;59840;52.122;5.404;2023-02-12T06:49:18;104020.66;;;6.30;96.06
71974;BME280;59840;52.122;5.404;2023-02-12T06:51:45;104025.91;;;6.30;96.31
71974;BME280;59840;52.122;5.404;2023-02-12T06:54:13;104027.69;;;6.30;96.03
71974;BME280;59840;52.122;5.404;2023-02-12T06:56:40;104016.53;;;6.28;96.39
71974;BME280;59840;52.122;5.404;2023-02-12T06:59:12;104027.84;;;6.28;95.86
71974;BME280;59840;52.122;5.404;2023-02-12T07:01:39;104036.53;;;6.29;96.37
71974;BME280;59840;52.122;5.404;2023-02-12T07:04:06;104028.66;;;6.29;96.44
71974;BME280;59840;52.122;5.404;2023-02-12T07:06:34;104035.69;;;6.28;96.25
71974;BME280;59840;52.122;5.404;2023-02-12T07:09:01;104035.69;;;6.28;96.14
71974;BME280;59840;52.122;5.404;2023-02-12T07:11:33;104029.50;;;6.29;95.91
71974;BME280;59840;52.122;5.404;2023-02-12T07:14:03;104039.84;;;6.31;96.20
71974;BME280;59840;52.122;5.404;2023-02-12T07:16:30;104034.59;;;6.31;96.26
71974;BME280;59840;52.122;5.404;2023-02-12T07:18:57;104032.94;;;6.30;96.08
71974;BME280;59840;52.122;5.404;2023-02-12T07:21:24;104041.50;;;6.32;96.02
71974;BME280;59840;52.122;5.404;2023-02-12T07:23:51;104045.78;;;6.33;95.85
71974;BME280;59840;52.122;5.404;2023-02-12T07:26:19;104050.06;;;6.34;95.74
71974;BME280;59840;52.122;5.404;2023-02-12T07:28:47;104049.09;;;6.35;95.97
71974;BME280;59840;52.122;5.404;2023-02-12T07:31:21;104058.63;;;6.36;95.76
71974;BME280;59840;52.122;5.404;2023-02-12T07:33:52;104054.06;;;6.38;95.98
71974;BME280;59840;52.122;5.404;2023-02-12T07:36:20;104062.63;;;6.40;95.61
71974;BME280;59840;52.122;5.404;2023-02-12T07:38:47;104062.50;;;6.42;95.56
71974;BME280;59840;52.122;5.404;2023-02-12T07:41:22;104059.75;;;6.43;95.33
71974;BME280;59840;52.122;5.404;2023-02-12T07:43:53;104061.66;;;6.41;95.18
71974;BME280;59840;52.122;5.404;2023-02-12T07:46:25;104058.50;;;6.47;95.54
71974;BME280;59840;52.122;5.404;2023-02-12T07:48:56;104063.59;;;6.49;95.28
71974;BME280;59840;52.122;5.404;2023-02-12T07:51:24;104073.84;;;6.52;95.33
71974;BME280;59840;52.122;5.404;2023-02-12T07:53:52;104065.69;;;6.55;95.75
71974;BME280;59840;52.122;5.404;2023-02-12T07:56:21;104073.28;;;6.58;95.18
71974;BME280;59840;52.122;5.404;2023-02-12T07:58:50;104071.31;;;6.60;95.14
71974;BME280;59840;52.122;5.404;2023-02-12T08:01:25;104077.94;;;6.64;94.90
71974;BME280;59840;52.122;5.404;2023-02-12T08:03:53;104075.19;;;6.65;95.25
71974;BME280;59840;52.122;5.404;2023-02-12T08:06:22;104070.63;;;6.67;94.82
71974;BME280;59840;52.122;5.404;2023-02-12T08:08:54;104081.81;;;6.69;94.69
71974;BME280;59840;52.122;5.404;2023-02-12T08:11:22;104082.66;;;6.70;94.57
71974;BME280;59840;52.122;5.404;2023-02-12T08:13:49;104085.00;;;6.73;94.45
71974;BME280;59840;52.122;5.404;2023-02-12T08:16:22;104089.28;;;6.74;94.27
71974;BME280;59840;52.122;5.404;2023-02-12T08:18:50;104088.44;;;6.73;94.50
71974;BME280;59840;52.122;5.404;2023-02-12T08:21:19;104094.41;;;6.76;94.22
71974;BME280;59840;52.122;5.404;2023-02-12T08:23:46;104097.72;;;6.78;94.53
71974;BME280;59840;52.122;5.404;2023-02-12T08:26:34;104102.97;;;6.78;94.19
71974;BME280;59840;52.122;5.404;2023-02-12T08:29:10;104093.97;;;6.80;94.18
71974;BME280;59840;52.122;5.404;2023-02-12T08:31:39;104094.53;;;6.84;93.84
71974;BME280;59840;52.122;5.404;2023-02-12T08:34:16;104093.97;;;6.80;93.94
71974;BME280;59840;52.122;5.404;2023-02-12T08:36:43;104104.06;;;6.85;94.05
71974;BME280;59840;52.122;5.404;2023-02-12T08:39:10;104102.81;;;6.89;94.29
71974;BME280;59840;52.122;5.404;2023-02-12T08:41:37;104107.63;;;6.93;93.91
71974;BME280;59840;52.122;5.404;2023-02-12T08:44:04;104107.50;;;6.95;93.72
71974;BME280;59840;52.122;5.404;2023-02-12T08:46:33;104116.06;;;6.97;93.68
71974;BME280;59840;52.122;5.404;2023-02-12T08:49:10;104112.19;;;7.01;93.56
71974;BME280;59840;52.122;5.404;2023-02-12T08:51:45;104121.56;;;7.03;93.40
71974;BME280;59840;52.122;5.404;2023-02-12T08:54:19;104122.13;;;7.07;93.54
71974;BME280;59840;52.122;5.404;2023-02-12T08:56:46;104114.94;;;7.09;93.42
71974;BME280;59840;52.122;5.404;2023-02-12T08:59:14;104125.16;;;7.12;93.11
71974;BME280;59840;52.122;5.404;2023-02-12T09:01:42;104120.75;;;7.13;93.03
71974;BME280;59840;52.122;5.404;2023-02-12T09:04:18;104121.56;;;7.13;93.03
71974;BME280;59840;52.122;5.404;2023-02-12T09:06:47;104117.97;;;7.14;92.47
71974;BME280;59840;52.122;5.404;2023-02-12T09:09:14;104124.88;;;7.15;92.71
71974;BME280;59840;52.122;5.404;2023-02-12T09:11:41;104122.81;;;7.19;92.62
71974;BME280;59840;52.122;5.404;2023-02-12T09:14:11;104121.69;;;7.21;92.37
71974;BME280;59840;52.122;5.404;2023-02-12T09:16:38;104124.06;;;7.24;92.70
71974;BME280;59840;52.122;5.404;2023-02-12T09:19:06;104121.16;;;7.27;92.21
71974;BME280;59840;52.122;5.404;2023-02-12T09:21:33;104123.31;;;7.32;92.21
71974;BME280;59840;52.122;5.404;2023-02-12T09:24:00;104125.66;;;7.35;91.77
71974;BME280;59840;52.122;5.404;2023-02-12T09:26:29;104129.81;;;7.37;91.96
71974;BME280;59840;52.122;5.404;2023-02-12T09:28:55;104130.34;;;7.41;91.92
71974;BME280;59840;52.122;5.404;2023-02-12T09:31:25;104131.03;;;7.43;92.08
71974;BME280;59840;52.122;5.404;2023-02-12T09:33:54;104130.63;;;7.48;91.43
71974;BME280;59840;52.122;5.404;2023-02-12T09:36:22;104126.06;;;7.50;91.73
71974;BME280;59840;52.122;5.404;2023-02-12T09:38:49;104132.00;;;7.52;91.59
71974;BME280;59840;52.122;5.404;2023-02-12T09:44:21;104121.75;;;7.58;91.23
71974;BME280;59840;52.122;5.404;2023-02-12T09:47:03;104121.28;;;7.63;91.18
71974;BME280;59840;52.122;5.404;2023-02-12T09:52:19;104121.53;;;7.69;90.89
71974;BME280;59840;52.122;5.404;2023-02-12T09:54:49;104120.44;;;7.72;90.53
71974;BME280;59840;52.122;5.404;2023-02-12T09:57:25;104124.41;;;7.76;90.39
71974;BME280;59840;52.122;5.404;2023-02-12T10:00:03;104122.34;;;7.80;90.31
71974;BME280;59840;52.122;5.404;2023-02-12T10:02:30;104127.16;;;7.84;90.37
71974;BME280;59840;52.122;5.404;2023-02-12T10:05:00;104130.19;;;7.89;89.40
71974;BME280;59840;52.122;5.404;2023-02-12T10:10:34;104117.72;;;7.91;88.94
71974;BME280;59840;52.122;5.404;2023-02-12T10:23:39;104130.06;;;8.08;88.33
71974;BME280;59840;52.122;5.404;2023-02-12T10:28:48;104122.88;;;8.11;88.18
71974;BME280;59840;52.122;5.404;2023-02-12T10:31:33;104123.25;;;8.16;88.25
71974;BME280;59840;52.122;5.404;2023-02-12T10:34:15;104123.41;;;8.14;87.60
71974;BME280;59840;52.122;5.404;2023-02-12T10:36:45;104129.50;;;8.15;87.33
71974;BME280;59840;52.122;5.404;2023-02-12T10:39:23;104124.91;;;8.17;88.14
71974;BME280;59840;52.122;5.404;2023-02-12T10:42:00;104128.63;;;8.24;87.44
71974;BME280;59840;52.122;5.404;2023-02-12T10:44:30;104125.00;;;8.25;87.52
71974;BME280;59840;52.122;5.404;2023-02-12T10:46:56;104120.97;;;8.30;87.50
71974;BME280;59840;52.122;5.404;2023-02-12T10:49:23;104111.94;;;8.33;87.78
71974;BME280;59840;52.122;5.404;2023-02-12T10:52:04;104114.97;;;8.38;87.77
71974;BME280;59840;52.122;5.404;2023-02-12T10:57:25;104116.31;;;8.42;87.75
71974;BME280;59840;52.122;5.404;2023-02-12T10:59:54;104120.47;;;8.45;87.03
71974;BME280;59840;52.122;5.404;2023-02-12T11:02:23;104126.41;;;8.47;86.40
71974;BME280;59840;52.122;5.404;2023-02-12T11:04:52;104115.72;;;8.48;86.43
71974;BME280;59840;52.122;5.404;2023-02-12T11:07:21;104117.69;;;8.46;85.36
71974;BME280;59840;52.122;5.404;2023-02-12T11:09:50;104116.84;;;8.46;86.95
71974;BME280;59840;52.122;5.404;2023-02-12T11:12:20;104121.66;;;8.50;86.46
71974;BME280;59840;52.122;5.404;2023-02-12T11:14:54;104116.09;;;8.53;85.67
71974;BME280;59840;52.122;5.404;2023-02-12T11:17:54;104124.69;;;8.55;86.64
71974;BME280;59840;52.122;5.404;2023-02-12T11:23:04;104111.06;;;8.60;85.51
71974;BME280;59840;52.122;5.404;2023-02-12T11:25:34;104107.63;;;8.59;84.92
71974;BME280;59840;52.122;5.404;2023-02-12T11:28:17;104105.03;;;8.67;85.96
71974;BME280;59840;52.122;5.404;2023-02-12T11:33:29;104115.13;;;8.72;85.30
71974;BME280;59840;52.122;5.404;2023-02-12T11:36:04;104109.69;;;8.73;84.40
71974;BME280;59840;52.122;5.404;2023-02-12T11:38:36;104099.84;;;8.76;84.97
71974;BME280;59840;52.122;5.404;2023-02-12T11:43:44;104098.88;;;8.77;84.41
71974;BME280;59840;52.122;5.404;2023-02-12T11:46:18;104100.66;;;8.76;83.76
71974;BME280;59840;52.122;5.404;2023-02-12T11:48:46;104099.25;;;8.82;83.64
71974;BME280;59840;52.122;5.404;2023-02-12T11:51:19;104104.34;;;8.83;83.54
71974;BME280;59840;52.122;5.404;2023-02-12T11:53:49;104095.16;;;8.87;83.29
71974;BME280;59840;52.122;5.404;2023-02-12T11:56:17;104102.63;;;8.92;82.52
71974;BME280;59840;52.122;5.404;2023-02-12T11:58:46;104099.84;;;8.93;82.74
71974;BME280;59840;52.122;5.404;2023-02-12T12:01:29;104100.06;;;9.00;83.27
71974;BME280;59840;52.122;5.404;2023-02-12T12:04:06;104102.50;;;9.01;83.44
71974;BME280;59840;52.122;5.404;2023-02-12T12:06:39;104094.13;;;9.06;82.67
71974;BME280;59840;52.122;5.404;2023-02-12T12:09:31;104089.84;;;9.05;81.99
71974;BME280;59840;52.122;5.404;2023-02-12T12:14:26;104086.91;;;9.08;82.05
71974;BME280;59840;52.122;5.404;2023-02-12T12:19:49;104076.28;;;9.18;81.95
71974;BME280;59840;52.122;5.404;2023-02-12T12:22:41;104076.34;;;9.26;82.25
71974;BME280;59840;52.122;5.404;2023-02-12T12:25:25;104080.31;;;9.30;81.91
71974;BME280;59840;52.122;5.404;2023-02-12T12:27:59;104081.97;;;9.31;81.08
71974;BME280;59840;52.122;5.404;2023-02-12T12:33:09;104068.75;;;9.23;80.14
71974;BME280;59840;52.122;5.404;2023-02-12T12:35:51;104070.53;;;9.22;80.74
71974;BME280;59840;52.122;5.404;2023-02-12T12:57:49;104050.66;;;9.36;80.11
71974;BME280;59840;52.122;5.404;2023-02-12T13:12:19;104044.75;;;9.34;79.65
71974;BME280;59840;52.122;5.404;2023-02-12T13:20:39;104037.00;;;9.32;80.01
71974;BME280;59840;52.122;5.404;2023-02-12T13:23:15;104037.69;;;9.34;79.47
71974;BME280;59840;52.122;5.404;2023-02-12T13:28:47;104040.63;;;9.31;79.17
71974;BME280;59840;52.122;5.404;2023-02-12T13:31:20;104033.19;;;9.27;78.37
71974;BME280;59840;52.122;5.404;2023-02-12T13:34:02;104025.44;;;9.25;79.07
71974;BME280;59840;52.122;5.404;2023-02-12T13:36:31;104032.00;;;9.21;79.00
71974;BME280;59840;52.122;5.404;2023-02-12T13:39:15;104026.59;;;9.23;79.11
71974;BME280;59840;52.122;5.404;2023-02-12T13:41:51;104031.03;;;9.22;78.56
71974;BME280;59840;52.122;5.404;2023-02-12T13:44:24;104025.59;;;9.24;79.33
71974;BME280;59840;52.122;5.404;2023-02-12T13:47:06;104027.25;;;9.25;78.83
71974;BME280;59840;52.122;5.404;2023-02-12T13:52:08;104015.06;;;9.24;78.11
71974;BME280;59840;52.122;5.404;2023-02-12T13:57:18;104014.91;;;9.25;78.97
71974;BME280;59840;52.122;5.404;2023-02-12T13:59:47;104008.28;;;9.21;78.55
71974;BME280;59840;52.122;5.404;2023-02-12T14:05:16;104012.06;;;9.19;78.12
71974;BME280;59840;52.122;5.404;2023-02-12T14:07:50;104018.16;;;9.19;79.05
71974;BME280;59840;52.122;5.404;2023-02-12T14:10:23;104012.53;;;9.14;78.71
71974;BME280;59840;52.122;5.404;2023-02-12T14:12:52;104005.09;;;9.10;78.58
71974;BME280;59840;52.122;5.404;2023-02-12T14:15:35;104002.94;;;9.05;78.54
71974;BME280;59840;52.122;5.404;2023-02-12T14:24:39;104005.19;;;8.92;78.84
71974;BME280;59840;52.122;5.404;2023-02-12T14:27:25;103997.44;;;8.90;78.53
71974;BME280;59840;52.122;5.404;2023-02-12T14:32:56;103996.91;;;8.87;79.00
71974;BME280;59840;52.122;5.404;2023-02-12T14:35:40;103996.25;;;8.85;78.38
71974;BME280;59840;52.122;5.404;2023-02-12T14:43:34;103994.38;;;8.77;77.92
71974;BME280;59840;52.122;5.404;2023-02-12T14:48:56;103989.19;;;8.67;77.97
71974;BME280;59840;52.122;5.404;2023-02-12T14:51:42;103991.81;;;8.59;77.97
71974;BME280;59840;52.122;5.404;2023-02-12T14:57:05;103990.44;;;8.55;77.78
71974;BME280;59840;52.122;5.404;2023-02-12T14:59:39;103991.59;;;8.53;77.33
71974;BME280;59840;52.122;5.404;2023-02-12T15:05:25;103996.31;;;8.49;77.95
71974;BME280;59840;52.122;5.404;2023-02-12T15:08:04;103990.38;;;8.47;78.23
71974;BME280;59840;52.122;5.404;2023-02-12T15:10:40;103992.66;;;8.42;77.12
71974;BME280;59840;52.122;5.404;2023-02-12T15:15:59;103996.56;;;8.38;78.37
71974;BME280;59840;52.122;5.404;2023-02-12T15:21:23;103992.56;;;8.34;78.02
71974;BME280;59840;52.122;5.404;2023-02-12T15:24:06;103989.22;;;8.32;78.26
71974;BME280;59840;52.122;5.404;2023-02-12T15:26:38;103991.22;;;8.30;78.21
71974;BME280;59840;52.122;5.404;2023-02-12T15:29:16;103993.31;;;8.26;78.58
71974;BME280;59840;52.122;5.404;2023-02-12T15:31:49;103990.16;;;8.23;78.76
71974;BME280;59840;52.122;5.404;2023-02-12T15:34:19;103988.50;;;8.22;78.04
71974;BME280;59840;52.122;5.404;2023-02-12T15:36:47;103992.41;;;8.18;78.62
71974;BME280;59840;52.122;5.404;2023-02-12T15:39:18;103989.94;;;8.16;78.74
71974;BME280;59840;52.122;5.404;2023-02-12T15:41:47;103992.03;;;8.13;78.39
71974;BME280;59840;52.122;5.404;2023-02-12T15:46:55;103989.72;;;8.10;79.14
71974;BME280;59840;52.122;5.404;2023-02-12T15:49:27;103983.09;;;8.05;78.75
71974;BME280;59840;52.122;5.404;2023-02-12T15:51:55;103981.88;;;8.00;78.21
71974;BME280;59840;52.122;5.404;2023-02-12T15:54:22;103976.97;;;7.97;78.33
71974;BME280;59840;52.122;5.404;2023-02-12T15:56:49;103985.97;;;7.94;78.75
71974;BME280;59840;52.122;5.404;2023-02-12T15:59:24;103984.47;;;7.92;78.96